sensor_id;sensor_type;location;lat;lon;timestamp;P1;durP1;ratioP1;P2;durP2;ratioP2
41903;SDS011;27586;51.124;4.182;2023-05-07T00:02:21;9.68;;;5.93;;
41903;SDS011;27586;51.124;4.182;2023-05-07T00:04:47;6.65;;;4.93;;
41903;SDS011;27586;51.124;4.182;2023-05-07T00:07:14;7.93;;;5.75;;
41903;SDS011;27586;51.124;4.182;2023-05-07T00:09:40;7.13;;;5.30;;
41903;SDS011;27586;51.124;4.182;2023-05-07T00:12:06;7.20;;;5.63;;
41903;SDS011;27586;51.124;4.182;2023-05-07T00:14:32;7.30;;;5.35;;
41903;SDS011;27586;51.124;4.182;2023-05-07T00:16:57;6.90;;;5.68;;
41903;SDS011;27586;51.124;4.182;2023-05-07T00:19:23;7.18;;;5.07;;
41903;SDS011;27586;51.124;4.182;2023-05-07T00:21:49;7.22;;;5.28;;
41903;SDS011;27586;51.124;4.182;2023-05-07T00:24:15;8.05;;;5.60;;
41903;SDS011;27586;51.124;4.182;2023-05-07T00:26:40;6.50;;;5.32;;
41903;SDS011;27586;51.124;4.182;2023-05-07T00:29:06;7.10;;;5.78;;
41903;SDS011;27586;51.124;4.182;2023-05-07T00:31:32;7.65;;;5.32;;
41903;SDS011;27586;51.124;4.182;2023-05-07T00:33:57;6.57;;;5.65;;
41903;SDS011;27586;51.124;4.182;2023-05-07T00:36:23;6.00;;;5.45;;
41903;SDS011;27586;51.124;4.182;2023-05-07T00:38:48;6.97;;;5.63;;
41903;SDS011;27586;51.124;4.182;2023-05-07T00:41:15;6.30;;;5.43;;
41903;SDS011;27586;51.124;4.182;2023-05-07T00:43:40;7.20;;;5.88;;
41903;SDS011;27586;51.124;4.182;2023-05-07T00:46:06;7.93;;;5.40;;
41903;SDS011;27586;51.124;4.182;2023-05-07T00:48:32;7.75;;;5.40;;
41903;SDS011;27586;51.124;4.182;2023-05-07T00:50:57;7.63;;;5.57;;
41903;SDS011;27586;51.124;4.182;2023-05-07T00:53:23;6.70;;;5.40;;
41903;SDS011;27586;51.124;4.182;2023-05-07T00:55:49;7.25;;;6.10;;
41903;SDS011;27586;51.124;4.182;2023-05-07T00:58:15;6.90;;;5.22;;
41903;SDS011;27586;51.124;4.182;2023-05-07T01:00:41;7.30;;;5.70;;
41903;SDS011;27586;51.124;4.182;2023-05-07T01:03:07;6.93;;;6.07;;
41903;SDS011;27586;51.124;4.182;2023-05-07T01:05:33;7.85;;;6.07;;
41903;SDS011;27586;51.124;4.182;2023-05-07T01:08:00;7.15;;;5.25;;
41903;SDS011;27586;51.124;4.182;2023-05-07T01:10:26;8.52;;;6.00;;
41903;SDS011;27586;51.124;4.182;2023-05-07T01:12:53;7.97;;;5.65;;
41903;SDS011;27586;51.124;4.182;2023-05-07T01:15:19;9.50;;;5.88;;
41903;SDS011;27586;51.124;4.182;2023-05-07T01:17:45;6.82;;;5.22;;
41903;SDS011;27586;51.124;4.182;2023-05-07T01:20:10;6.80;;;5.45;;
41903;SDS011;27586;51.124;4.182;2023-05-07T01:22:37;7.68;;;5.35;;
41903;SDS011;27586;51.124;4.182;2023-05-07T01:25:04;6.10;;;5.47;;
41903;SDS011;27586;51.124;4.182;2023-05-07T01:27:30;7.85;;;5.88;;
41903;SDS011;27586;51.124;4.182;2023-05-07T01:29:58;8.07;;;6.15;;
41903;SDS011;27586;51.124;4.182;2023-05-07T01:35:11;6.93;;;5.68;;
41903;SDS011;27586;51.124;4.182;2023-05-07T01:37:39;7.88;;;5.45;;
41903;SDS011;27586;51.124;4.182;2023-05-07T01:40:05;6.70;;;5.78;;
41903;SDS011;27586;51.124;4.182;2023-05-07T01:42:32;8.00;;;5.95;;
41903;SDS011;27586;51.124;4.182;2023-05-07T01:44:58;5.80;;;5.30;;
41903;SDS011;27586;51.124;4.182;2023-05-07T01:47:24;7.18;;;5.80;;
41903;SDS011;27586;51.124;4.182;2023-05-07T01:49:50;6.72;;;5.50;;
41903;SDS011;27586;51.124;4.182;2023-05-07T01:52:16;8.60;;;6.70;;
41903;SDS011;27586;51.124;4.182;2023-05-07T01:54:42;7.18;;;6.30;;
41903;SDS011;27586;51.124;4.182;2023-05-07T01:57:08;8.25;;;6.22;;
41903;SDS011;27586;51.124;4.182;2023-05-07T01:59:34;7.45;;;6.40;;
41903;SDS011;27586;51.124;4.182;2023-05-07T02:01:59;6.63;;;5.90;;
41903;SDS011;27586;51.124;4.182;2023-05-07T02:04:25;7.38;;;5.97;;
41903;SDS011;27586;51.124;4.182;2023-05-07T02:06:51;5.82;;;5.25;;
41903;SDS011;27586;51.124;4.182;2023-05-07T02:09:17;9.05;;;6.05;;
41903;SDS011;27586;51.124;4.182;2023-05-07T02:11:43;6.85;;;5.85;;
41903;SDS011;27586;51.124;4.182;2023-05-07T02:14:09;6.57;;;5.85;;
41903;SDS011;27586;51.124;4.182;2023-05-07T02:16:35;6.03;;;5.38;;
41903;SDS011;27586;51.124;4.182;2023-05-07T02:19:01;6.30;;;5.70;;
41903;SDS011;27586;51.124;4.182;2023-05-07T02:21:27;7.32;;;6.00;;
41903;SDS011;27586;51.124;4.182;2023-05-07T02:23:53;7.60;;;6.80;;
41903;SDS011;27586;51.124;4.182;2023-05-07T02:26:19;8.40;;;6.78;;
41903;SDS011;27586;51.124;4.182;2023-05-07T02:28:44;11.68;;;6.93;;
41903;SDS011;27586;51.124;4.182;2023-05-07T02:31:10;8.40;;;6.78;;
41903;SDS011;27586;51.124;4.182;2023-05-07T02:33:35;7.50;;;6.70;;
41903;SDS011;27586;51.124;4.182;2023-05-07T02:36:19;8.57;;;7.28;;
41903;SDS011;27586;51.124;4.182;2023-05-07T02:38:45;9.85;;;6.80;;
41903;SDS011;27586;51.124;4.182;2023-05-07T02:41:11;8.15;;;7.35;;
41903;SDS011;27586;51.124;4.182;2023-05-07T02:43:36;8.35;;;7.55;;
41903;SDS011;27586;51.124;4.182;2023-05-07T02:46:06;9.05;;;7.72;;
41903;SDS011;27586;51.124;4.182;2023-05-07T02:48:33;8.73;;;7.07;;
41903;SDS011;27586;51.124;4.182;2023-05-07T02:50:59;8.23;;;7.28;;
41903;SDS011;27586;51.124;4.182;2023-05-07T02:53:25;8.60;;;7.45;;
41903;SDS011;27586;51.124;4.182;2023-05-07T02:55:55;8.57;;;7.68;;
41903;SDS011;27586;51.124;4.182;2023-05-07T02:58:22;8.32;;;7.43;;
41903;SDS011;27586;51.124;4.182;2023-05-07T03:00:48;8.68;;;7.38;;
41903;SDS011;27586;51.124;4.182;2023-05-07T03:03:13;9.30;;;7.57;;
41903;SDS011;27586;51.124;4.182;2023-05-07T03:05:39;8.25;;;7.30;;
41903;SDS011;27586;51.124;4.182;2023-05-07T03:08:05;8.35;;;7.35;;
41903;SDS011;27586;51.124;4.182;2023-05-07T03:10:35;8.90;;;7.93;;
41903;SDS011;27586;51.124;4.182;2023-05-07T03:13:01;8.82;;;7.38;;
41903;SDS011;27586;51.124;4.182;2023-05-07T03:15:27;8.10;;;7.30;;
41903;SDS011;27586;51.124;4.182;2023-05-07T03:17:52;9.60;;;7.80;;
41903;SDS011;27586;51.124;4.182;2023-05-07T03:20:18;8.55;;;7.65;;
41903;SDS011;27586;51.124;4.182;2023-05-07T03:22:44;8.63;;;7.72;;
41903;SDS011;27586;51.124;4.182;2023-05-07T03:25:10;8.10;;;7.25;;
41903;SDS011;27586;51.124;4.182;2023-05-07T03:27:36;8.10;;;7.30;;
41903;SDS011;27586;51.124;4.182;2023-05-07T03:30:01;8.68;;;7.78;;
41903;SDS011;27586;51.124;4.182;2023-05-07T03:32:27;8.75;;;7.95;;
41903;SDS011;27586;51.124;4.182;2023-05-07T03:34:53;9.60;;;8.70;;
41903;SDS011;27586;51.124;4.182;2023-05-07T03:37:19;10.02;;;8.38;;
41903;SDS011;27586;51.124;4.182;2023-05-07T03:39:45;9.80;;;8.80;;
41903;SDS011;27586;51.124;4.182;2023-05-07T03:42:10;10.13;;;8.93;;
41903;SDS011;27586;51.124;4.182;2023-05-07T03:44:36;9.93;;;8.63;;
41903;SDS011;27586;51.124;4.182;2023-05-07T03:47:02;9.80;;;8.80;;
41903;SDS011;27586;51.124;4.182;2023-05-07T03:49:28;10.93;;;9.30;;
41903;SDS011;27586;51.124;4.182;2023-05-07T03:51:54;9.98;;;8.98;;
41903;SDS011;27586;51.124;4.182;2023-05-07T03:54:20;10.50;;;9.02;;
41903;SDS011;27586;51.124;4.182;2023-05-07T03:56:46;10.73;;;9.63;;
41903;SDS011;27586;51.124;4.182;2023-05-07T03:59:12;10.52;;;9.43;;
41903;SDS011;27586;51.124;4.182;2023-05-07T04:01:38;11.27;;;10.07;;
41903;SDS011;27586;51.124;4.182;2023-05-07T04:04:04;11.13;;;9.80;;
41903;SDS011;27586;51.124;4.182;2023-05-07T04:06:30;11.27;;;9.88;;
41903;SDS011;27586;51.124;4.182;2023-05-07T04:08:56;11.05;;;10.00;;
41903;SDS011;27586;51.124;4.182;2023-05-07T04:11:22;10.50;;;9.50;;
41903;SDS011;27586;51.124;4.182;2023-05-07T04:13:47;10.20;;;9.00;;
41903;SDS011;27586;51.124;4.182;2023-05-07T04:16:13;10.48;;;9.45;;
41903;SDS011;27586;51.124;4.182;2023-05-07T04:18:39;11.13;;;9.98;;
41903;SDS011;27586;51.124;4.182;2023-05-07T04:21:05;10.60;;;9.60;;
41903;SDS011;27586;51.124;4.182;2023-05-07T04:23:30;11.35;;;10.25;;
41903;SDS011;27586;51.124;4.182;2023-05-07T04:25:56;12.18;;;10.75;;
41903;SDS011;27586;51.124;4.182;2023-05-07T04:28:22;12.65;;;10.63;;
41903;SDS011;27586;51.124;4.182;2023-05-07T04:30:48;11.50;;;10.40;;
41903;SDS011;27586;51.124;4.182;2023-05-07T04:33:14;11.75;;;10.55;;
41903;SDS011;27586;51.124;4.182;2023-05-07T04:35:43;12.63;;;11.30;;
41903;SDS011;27586;51.124;4.182;2023-05-07T04:38:09;12.43;;;11.13;;
41903;SDS011;27586;51.124;4.182;2023-05-07T04:40:37;12.55;;;11.35;;
41903;SDS011;27586;51.124;4.182;2023-05-07T04:43:04;11.93;;;10.75;;
41903;SDS011;27586;51.124;4.182;2023-05-07T04:45:29;11.10;;;10.05;;
41903;SDS011;27586;51.124;4.182;2023-05-07T04:47:55;12.18;;;10.88;;
41903;SDS011;27586;51.124;4.182;2023-05-07T04:50:21;12.25;;;10.85;;
41903;SDS011;27586;51.124;4.182;2023-05-07T04:52:49;12.82;;;10.93;;
41903;SDS011;27586;51.124;4.182;2023-05-07T04:55:15;11.77;;;10.57;;
41903;SDS011;27586;51.124;4.182;2023-05-07T04:57:40;11.85;;;10.75;;
41903;SDS011;27586;51.124;4.182;2023-05-07T05:00:06;12.50;;;11.10;;
41903;SDS011;27586;51.124;4.182;2023-05-07T05:02:35;12.80;;;10.73;;
41903;SDS011;27586;51.124;4.182;2023-05-07T05:05:01;12.65;;;10.80;;
41903;SDS011;27586;51.124;4.182;2023-05-07T05:07:29;11.95;;;10.82;;
41903;SDS011;27586;51.124;4.182;2023-05-07T05:09:55;11.55;;;10.40;;
41903;SDS011;27586;51.124;4.182;2023-05-07T05:12:22;12.00;;;10.90;;
41903;SDS011;27586;51.124;4.182;2023-05-07T05:14:48;11.70;;;10.60;;
41903;SDS011;27586;51.124;4.182;2023-05-07T05:17:13;11.70;;;10.55;;
41903;SDS011;27586;51.124;4.182;2023-05-07T05:19:39;11.27;;;10.25;;
41903;SDS011;27586;51.124;4.182;2023-05-07T05:22:05;10.32;;;9.32;;
41903;SDS011;27586;51.124;4.182;2023-05-07T05:24:31;11.57;;;10.15;;
41903;SDS011;27586;51.124;4.182;2023-05-07T05:26:56;12.40;;;11.20;;
41903;SDS011;27586;51.124;4.182;2023-05-07T05:29:22;10.98;;;9.88;;
41903;SDS011;27586;51.124;4.182;2023-05-07T05:31:48;11.88;;;10.45;;
41903;SDS011;27586;51.124;4.182;2023-05-07T05:34:13;11.40;;;10.20;;
41903;SDS011;27586;51.124;4.182;2023-05-07T05:36:39;12.13;;;10.93;;
41903;SDS011;27586;51.124;4.182;2023-05-07T05:39:05;10.90;;;9.90;;
41903;SDS011;27586;51.124;4.182;2023-05-07T05:41:31;12.93;;;11.27;;
41903;SDS011;27586;51.124;4.182;2023-05-07T05:43:56;11.40;;;10.30;;
41903;SDS011;27586;51.124;4.182;2023-05-07T05:46:22;11.63;;;10.43;;
41903;SDS011;27586;51.124;4.182;2023-05-07T05:48:48;11.57;;;10.48;;
41903;SDS011;27586;51.124;4.182;2023-05-07T05:51:13;11.05;;;9.95;;
41903;SDS011;27586;51.124;4.182;2023-05-07T05:53:39;10.57;;;9.57;;
41903;SDS011;27586;51.124;4.182;2023-05-07T05:56:05;10.95;;;9.15;;
41903;SDS011;27586;51.124;4.182;2023-05-07T05:58:31;11.13;;;10.07;;
41903;SDS011;27586;51.124;4.182;2023-05-07T06:00:56;11.75;;;10.60;;
41903;SDS011;27586;51.124;4.182;2023-05-07T06:03:23;11.10;;;10.02;;
41903;SDS011;27586;51.124;4.182;2023-05-07T06:05:48;11.63;;;10.43;;
41903;SDS011;27586;51.124;4.182;2023-05-07T06:08:14;12.35;;;10.82;;
41903;SDS011;27586;51.124;4.182;2023-05-07T06:10:40;11.25;;;10.05;;
41903;SDS011;27586;51.124;4.182;2023-05-07T06:13:06;11.43;;;10.30;;
41903;SDS011;27586;51.124;4.182;2023-05-07T06:15:32;11.98;;;10.77;;
41903;SDS011;27586;51.124;4.182;2023-05-07T06:17:57;11.80;;;10.60;;
41903;SDS011;27586;51.124;4.182;2023-05-07T06:20:23;11.20;;;10.07;;
41903;SDS011;27586;51.124;4.182;2023-05-07T06:22:49;12.27;;;11.10;;
41903;SDS011;27586;51.124;4.182;2023-05-07T06:25:15;12.23;;;10.93;;
41903;SDS011;27586;51.124;4.182;2023-05-07T06:27:40;12.82;;;11.57;;
41903;SDS011;27586;51.124;4.182;2023-05-07T06:30:06;12.63;;;11.25;;
41903;SDS011;27586;51.124;4.182;2023-05-07T06:32:33;11.70;;;10.50;;
41903;SDS011;27586;51.124;4.182;2023-05-07T06:34:58;11.93;;;10.73;;
41903;SDS011;27586;51.124;4.182;2023-05-07T06:37:24;11.00;;;9.90;;
41903;SDS011;27586;51.124;4.182;2023-05-07T06:39:50;11.23;;;10.13;;
41903;SDS011;27586;51.124;4.182;2023-05-07T06:42:16;11.35;;;10.15;;
41903;SDS011;27586;51.124;4.182;2023-05-07T06:44:41;10.60;;;9.27;;
41903;SDS011;27586;51.124;4.182;2023-05-07T06:47:07;11.45;;;9.60;;
41903;SDS011;27586;51.124;4.182;2023-05-07T06:49:33;10.35;;;8.40;;
41903;SDS011;27586;51.124;4.182;2023-05-07T06:51:58;10.18;;;9.18;;
41903;SDS011;27586;51.124;4.182;2023-05-07T06:54:24;10.25;;;9.13;;
41903;SDS011;27586;51.124;4.182;2023-05-07T06:56:50;10.07;;;9.00;;
41903;SDS011;27586;51.124;4.182;2023-05-07T06:59:15;10.10;;;8.75;;
41903;SDS011;27586;51.124;4.182;2023-05-07T07:01:41;12.20;;;10.93;;
41903;SDS011;27586;51.124;4.182;2023-05-07T07:04:07;9.80;;;8.27;;
41903;SDS011;27586;51.124;4.182;2023-05-07T07:06:32;8.25;;;6.95;;
41903;SDS011;27586;51.124;4.182;2023-05-07T07:08:58;8.15;;;6.80;;
41903;SDS011;27586;51.124;4.182;2023-05-07T07:11:24;7.88;;;5.43;;
41903;SDS011;27586;51.124;4.182;2023-05-07T07:13:50;7.07;;;5.18;;
41903;SDS011;27586;51.124;4.182;2023-05-07T07:16:16;5.43;;;4.90;;
41903;SDS011;27586;51.124;4.182;2023-05-07T07:18:42;8.40;;;6.05;;
41903;SDS011;27586;51.124;4.182;2023-05-07T07:21:07;8.35;;;5.22;;
41903;SDS011;27586;51.124;4.182;2023-05-07T07:23:33;7.95;;;5.43;;
41903;SDS011;27586;51.124;4.182;2023-05-07T07:25:59;6.28;;;4.78;;
41903;SDS011;27586;51.124;4.182;2023-05-07T07:28:24;7.15;;;4.68;;
41903;SDS011;27586;51.124;4.182;2023-05-07T07:30:50;8.07;;;5.10;;
41903;SDS011;27586;51.124;4.182;2023-05-07T07:33:16;6.00;;;4.75;;
41903;SDS011;27586;51.124;4.182;2023-05-07T07:35:42;6.60;;;4.78;;
41903;SDS011;27586;51.124;4.182;2023-05-07T07:38:07;5.95;;;4.78;;
41903;SDS011;27586;51.124;4.182;2023-05-07T07:40:36;5.63;;;4.78;;
41903;SDS011;27586;51.124;4.182;2023-05-07T07:43:02;7.35;;;5.15;;
41903;SDS011;27586;51.124;4.182;2023-05-07T07:45:28;5.25;;;4.57;;
41903;SDS011;27586;51.124;4.182;2023-05-07T07:47:54;5.40;;;4.53;;
41903;SDS011;27586;51.124;4.182;2023-05-07T07:50:20;8.85;;;5.93;;
41903;SDS011;27586;51.124;4.182;2023-05-07T07:52:45;8.07;;;5.00;;
41903;SDS011;27586;51.124;4.182;2023-05-07T07:55:11;6.22;;;4.90;;
41903;SDS011;27586;51.124;4.182;2023-05-07T07:57:37;6.15;;;4.50;;
41903;SDS011;27586;51.124;4.182;2023-05-07T08:00:03;5.22;;;4.30;;
41903;SDS011;27586;51.124;4.182;2023-05-07T08:02:31;8.50;;;4.78;;
41903;SDS011;27586;51.124;4.182;2023-05-07T08:04:56;5.05;;;4.18;;
41903;SDS011;27586;51.124;4.182;2023-05-07T08:07:22;7.07;;;4.60;;
41903;SDS011;27586;51.124;4.182;2023-05-07T08:09:48;7.97;;;4.32;;
41903;SDS011;27586;51.124;4.182;2023-05-07T08:12:14;7.78;;;4.68;;
41903;SDS011;27586;51.124;4.182;2023-05-07T08:14:40;5.18;;;4.18;;
41903;SDS011;27586;51.124;4.182;2023-05-07T08:17:06;5.80;;;3.70;;
41903;SDS011;27586;51.124;4.182;2023-05-07T08:19:32;4.97;;;4.15;;
41903;SDS011;27586;51.124;4.182;2023-05-07T08:21:57;5.07;;;3.53;;
41903;SDS011;27586;51.124;4.182;2023-05-07T08:24:23;5.10;;;3.42;;
41903;SDS011;27586;51.124;4.182;2023-05-07T08:26:49;4.60;;;3.63;;
41903;SDS011;27586;51.124;4.182;2023-05-07T08:29:15;4.97;;;3.70;;
41903;SDS011;27586;51.124;4.182;2023-05-07T08:31:40;5.75;;;3.75;;
41903;SDS011;27586;51.124;4.182;2023-05-07T08:34:06;6.65;;;4.20;;
41903;SDS011;27586;51.124;4.182;2023-05-07T08:36:32;7.60;;;3.92;;
41903;SDS011;27586;51.124;4.182;2023-05-07T08:38:59;6.25;;;4.15;;
41903;SDS011;27586;51.124;4.182;2023-05-07T08:41:25;4.40;;;3.70;;
41903;SDS011;27586;51.124;4.182;2023-05-07T08:43:50;4.43;;;3.65;;
41903;SDS011;27586;51.124;4.182;2023-05-07T08:46:17;4.10;;;3.70;;
41903;SDS011;27586;51.124;4.182;2023-05-07T08:48:44;4.85;;;3.50;;
41903;SDS011;27586;51.124;4.182;2023-05-07T08:51:13;6.95;;;3.70;;
41903;SDS011;27586;51.124;4.182;2023-05-07T08:53:40;5.88;;;3.55;;
41903;SDS011;27586;51.124;4.182;2023-05-07T08:56:08;4.63;;;3.72;;
41903;SDS011;27586;51.124;4.182;2023-05-07T08:58:34;4.03;;;3.28;;
41903;SDS011;27586;51.124;4.182;2023-05-07T09:01:03;4.43;;;3.35;;
41903;SDS011;27586;51.124;4.182;2023-05-07T09:03:34;4.78;;;3.35;;
41903;SDS011;27586;51.124;4.182;2023-05-07T09:06:02;4.10;;;3.20;;
41903;SDS011;27586;51.124;4.182;2023-05-07T09:08:28;4.95;;;3.15;;
41903;SDS011;27586;51.124;4.182;2023-05-07T09:10:54;5.35;;;3.60;;
41903;SDS011;27586;51.124;4.182;2023-05-07T09:13:20;4.95;;;3.60;;
41903;SDS011;27586;51.124;4.182;2023-05-07T09:15:46;4.90;;;3.40;;
41903;SDS011;27586;51.124;4.182;2023-05-07T09:18:12;4.05;;;3.63;;
41903;SDS011;27586;51.124;4.182;2023-05-07T09:20:38;4.50;;;4.10;;
41903;SDS011;27586;51.124;4.182;2023-05-07T09:23:07;5.35;;;4.07;;
41903;SDS011;27586;51.124;4.182;2023-05-07T09:25:34;5.22;;;4.13;;
41903;SDS011;27586;51.124;4.182;2023-05-07T09:28:01;4.80;;;3.78;;
41903;SDS011;27586;51.124;4.182;2023-05-07T09:30:28;4.82;;;3.72;;
41903;SDS011;27586;51.124;4.182;2023-05-07T09:32:55;4.65;;;3.70;;
41903;SDS011;27586;51.124;4.182;2023-05-07T09:35:26;7.25;;;3.53;;
41903;SDS011;27586;51.124;4.182;2023-05-07T09:37:57;5.13;;;3.10;;
41903;SDS011;27586;51.124;4.182;2023-05-07T09:40:29;5.40;;;3.33;;
41903;SDS011;27586;51.124;4.182;2023-05-07T09:42:56;5.45;;;3.65;;
41903;SDS011;27586;51.124;4.182;2023-05-07T09:45:33;4.53;;;3.13;;
41903;SDS011;27586;51.124;4.182;2023-05-07T09:47:59;3.38;;;3.08;;
41903;SDS011;27586;51.124;4.182;2023-05-07T09:50:30;3.90;;;3.28;;
41903;SDS011;27586;51.124;4.182;2023-05-07T09:53:01;4.25;;;2.80;;
41903;SDS011;27586;51.124;4.182;2023-05-07T09:55:28;5.93;;;3.45;;
41903;SDS011;27586;51.124;4.182;2023-05-07T09:57:54;5.38;;;3.60;;
41903;SDS011;27586;51.124;4.182;2023-05-07T10:00:20;6.03;;;3.42;;
41903;SDS011;27586;51.124;4.182;2023-05-07T10:02:48;3.83;;;3.47;;
41903;SDS011;27586;51.124;4.182;2023-05-07T10:05:16;6.63;;;3.80;;
41903;SDS011;27586;51.124;4.182;2023-05-07T10:07:43;4.90;;;3.75;;
41903;SDS011;27586;51.124;4.182;2023-05-07T10:10:11;5.07;;;3.05;;
41903;SDS011;27586;51.124;4.182;2023-05-07T10:12:37;4.70;;;3.67;;
41903;SDS011;27586;51.124;4.182;2023-05-07T10:15:08;6.07;;;3.25;;
41903;SDS011;27586;51.124;4.182;2023-05-07T10:17:35;4.68;;;3.30;;
41903;SDS011;27586;51.124;4.182;2023-05-07T10:20:02;3.72;;;3.10;;
41903;SDS011;27586;51.124;4.182;2023-05-07T10:22:29;5.13;;;3.03;;
41903;SDS011;27586;51.124;4.182;2023-05-07T10:25:02;4.70;;;3.25;;
41903;SDS011;27586;51.124;4.182;2023-05-07T10:27:31;4.32;;;2.72;;
41903;SDS011;27586;51.124;4.182;2023-05-07T10:32:35;3.00;;;2.70;;
41903;SDS011;27586;51.124;4.182;2023-05-07T10:35:03;4.15;;;3.03;;
41903;SDS011;27586;51.124;4.182;2023-05-07T10:37:33;4.55;;;3.30;;
41903;SDS011;27586;51.124;4.182;2023-05-07T10:39:59;4.20;;;3.58;;
41903;SDS011;27586;51.124;4.182;2023-05-07T10:42:25;5.75;;;3.38;;
41903;SDS011;27586;51.124;4.182;2023-05-07T10:44:50;4.00;;;3.22;;
41903;SDS011;27586;51.124;4.182;2023-05-07T10:47:16;5.50;;;3.30;;
41903;SDS011;27586;51.124;4.182;2023-05-07T10:52:13;5.63;;;2.70;;
41903;SDS011;27586;51.124;4.182;2023-05-07T10:54:43;4.43;;;2.72;;
41903;SDS011;27586;51.124;4.182;2023-05-07T10:59:56;3.90;;;2.90;;
41903;SDS011;27586;51.124;4.182;2023-05-07T11:02:22;3.45;;;2.58;;
41903;SDS011;27586;51.124;4.182;2023-05-07T11:07:53;3.33;;;3.00;;
41903;SDS011;27586;51.124;4.182;2023-05-07T11:13:13;6.22;;;3.33;;
41903;SDS011;27586;51.124;4.182;2023-05-07T11:15:41;4.22;;;3.38;;
41903;SDS011;27586;51.124;4.182;2023-05-07T11:18:09;4.07;;;3.60;;
41903;SDS011;27586;51.124;4.182;2023-05-07T11:20:45;3.97;;;3.60;;
41903;SDS011;27586;51.124;4.182;2023-05-07T11:26:03;4.28;;;3.85;;
41903;SDS011;27586;51.124;4.182;2023-05-07T11:28:30;4.82;;;3.97;;
41903;SDS011;27586;51.124;4.182;2023-05-07T11:31:01;5.05;;;3.70;;
41903;SDS011;27586;51.124;4.182;2023-05-07T11:33:27;3.90;;;3.50;;
41903;SDS011;27586;51.124;4.182;2023-05-07T11:35:55;4.85;;;3.80;;
41903;SDS011;27586;51.124;4.182;2023-05-07T11:38:21;4.00;;;3.42;;
41903;SDS011;27586;51.124;4.182;2023-05-07T11:40:54;4.50;;;3.40;;
41903;SDS011;27586;51.124;4.182;2023-05-07T11:43:25;4.53;;;3.63;;
41903;SDS011;27586;51.124;4.182;2023-05-07T11:45:52;5.03;;;3.67;;
41903;SDS011;27586;51.124;4.182;2023-05-07T11:48:17;4.70;;;3.65;;
41903;SDS011;27586;51.124;4.182;2023-05-07T11:50:50;4.20;;;3.78;;
41903;SDS011;27586;51.124;4.182;2023-05-07T11:53:17;5.35;;;3.83;;
41903;SDS011;27586;51.124;4.182;2023-05-07T11:55:43;4.65;;;3.70;;
41903;SDS011;27586;51.124;4.182;2023-05-07T11:58:10;4.40;;;3.92;;
41903;SDS011;27586;51.124;4.182;2023-05-07T12:00:37;4.63;;;3.55;;
41903;SDS011;27586;51.124;4.182;2023-05-07T12:03:03;4.43;;;3.85;;
41903;SDS011;27586;51.124;4.182;2023-05-07T12:05:30;4.20;;;3.80;;
41903;SDS011;27586;51.124;4.182;2023-05-07T12:07:56;5.03;;;3.42;;
41903;SDS011;27586;51.124;4.182;2023-05-07T12:10:22;4.55;;;4.10;;
41903;SDS011;27586;51.124;4.182;2023-05-07T12:12:50;4.57;;;3.67;;
41903;SDS011;27586;51.124;4.182;2023-05-07T12:15:16;6.18;;;3.30;;
41903;SDS011;27586;51.124;4.182;2023-05-07T12:17:42;5.13;;;3.80;;
41903;SDS011;27586;51.124;4.182;2023-05-07T12:20:08;7.35;;;3.60;;
41903;SDS011;27586;51.124;4.182;2023-05-07T12:22:35;5.70;;;3.83;;
41903;SDS011;27586;51.124;4.182;2023-05-07T12:25:01;3.75;;;3.13;;
41903;SDS011;27586;51.124;4.182;2023-05-07T12:27:28;3.65;;;3.30;;
41903;SDS011;27586;51.124;4.182;2023-05-07T12:29:53;3.28;;;2.88;;
41903;SDS011;27586;51.124;4.182;2023-05-07T12:32:20;3.40;;;3.10;;
41903;SDS011;27586;51.124;4.182;2023-05-07T12:34:46;3.72;;;3.03;;
41903;SDS011;27586;51.124;4.182;2023-05-07T12:37:15;3.20;;;2.90;;
41903;SDS011;27586;51.124;4.182;2023-05-07T12:39:44;3.60;;;3.22;;
41903;SDS011;27586;51.124;4.182;2023-05-07T12:42:14;3.72;;;2.63;;
41903;SDS011;27586;51.124;4.182;2023-05-07T12:44:41;3.22;;;2.40;;
41903;SDS011;27586;51.124;4.182;2023-05-07T12:47:10;3.20;;;2.40;;
41903;SDS011;27586;51.124;4.182;2023-05-07T12:49:35;3.05;;;2.40;;
41903;SDS011;27586;51.124;4.182;2023-05-07T12:52:05;4.43;;;2.92;;
41903;SDS011;27586;51.124;4.182;2023-05-07T12:54:31;3.65;;;2.33;;
41903;SDS011;27586;51.124;4.182;2023-05-07T12:57:04;3.03;;;2.15;;
41903;SDS011;27586;51.124;4.182;2023-05-07T13:01:57;3.63;;;2.40;;
41903;SDS011;27586;51.124;4.182;2023-05-07T13:04:24;2.65;;;1.85;;
41903;SDS011;27586;51.124;4.182;2023-05-07T13:06:50;3.95;;;1.98;;
41903;SDS011;27586;51.124;4.182;2023-05-07T13:09:15;2.50;;;2.08;;
41903;SDS011;27586;51.124;4.182;2023-05-07T13:11:41;2.40;;;1.80;;
41903;SDS011;27586;51.124;4.182;2023-05-07T13:14:07;2.45;;;1.65;;
41903;SDS011;27586;51.124;4.182;2023-05-07T13:16:33;3.25;;;1.88;;
41903;SDS011;27586;51.124;4.182;2023-05-07T13:18:58;3.08;;;1.70;;
41903;SDS011;27586;51.124;4.182;2023-05-07T13:21:24;4.07;;;2.08;;
41903;SDS011;27586;51.124;4.182;2023-05-07T13:23:50;4.35;;;2.30;;
41903;SDS011;27586;51.124;4.182;2023-05-07T13:26:16;2.60;;;1.90;;
41903;SDS011;27586;51.124;4.182;2023-05-07T13:28:41;3.25;;;2.00;;
41903;SDS011;27586;51.124;4.182;2023-05-07T13:31:08;1.98;;;1.55;;
41903;SDS011;27586;51.124;4.182;2023-05-07T13:33:34;1.90;;;1.55;;
41903;SDS011;27586;51.124;4.182;2023-05-07T13:36:00;1.85;;;1.70;;
41903;SDS011;27586;51.124;4.182;2023-05-07T13:38:27;2.40;;;1.50;;
41903;SDS011;27586;51.124;4.182;2023-05-07T13:40:52;2.65;;;1.90;;
41903;SDS011;27586;51.124;4.182;2023-05-07T13:43:18;2.90;;;1.60;;
41903;SDS011;27586;51.124;4.182;2023-05-07T13:45:44;3.30;;;1.95;;
41903;SDS011;27586;51.124;4.182;2023-05-07T13:48:10;1.67;;;1.58;;
41903;SDS011;27586;51.124;4.182;2023-05-07T13:50:37;2.60;;;2.03;;
41903;SDS011;27586;51.124;4.182;2023-05-07T13:53:02;2.25;;;1.83;;
41903;SDS011;27586;51.124;4.182;2023-05-07T13:55:28;2.75;;;1.98;;
41903;SDS011;27586;51.124;4.182;2023-05-07T13:57:55;3.95;;;2.20;;
41903;SDS011;27586;51.124;4.182;2023-05-07T14:00:22;2.65;;;1.88;;
41903;SDS011;27586;51.124;4.182;2023-05-07T14:02:48;3.90;;;1.90;;
41903;SDS011;27586;51.124;4.182;2023-05-07T14:05:14;2.63;;;1.90;;
41903;SDS011;27586;51.124;4.182;2023-05-07T14:07:40;2.72;;;2.13;;
41903;SDS011;27586;51.124;4.182;2023-05-07T14:10:05;3.05;;;2.40;;
41903;SDS011;27586;51.124;4.182;2023-05-07T14:12:32;2.40;;;2.05;;
41903;SDS011;27586;51.124;4.182;2023-05-07T14:14:58;2.78;;;2.13;;
41903;SDS011;27586;51.124;4.182;2023-05-07T14:17:24;2.40;;;2.20;;
41903;SDS011;27586;51.124;4.182;2023-05-07T14:19:52;2.78;;;2.35;;
41903;SDS011;27586;51.124;4.182;2023-05-07T14:22:19;2.65;;;2.08;;
41903;SDS011;27586;51.124;4.182;2023-05-07T14:24:46;2.53;;;2.25;;
41903;SDS011;27586;51.124;4.182;2023-05-07T14:27:11;2.30;;;2.10;;
41903;SDS011;27586;51.124;4.182;2023-05-07T14:29:37;3.00;;;2.40;;
41903;SDS011;27586;51.124;4.182;2023-05-07T14:32:03;3.60;;;2.33;;
41903;SDS011;27586;51.124;4.182;2023-05-07T14:34:29;2.42;;;2.22;;
41903;SDS011;27586;51.124;4.182;2023-05-07T14:36:55;2.55;;;2.35;;
41903;SDS011;27586;51.124;4.182;2023-05-07T14:39:20;3.58;;;2.33;;
41903;SDS011;27586;51.124;4.182;2023-05-07T14:41:46;2.67;;;2.17;;
41903;SDS011;27586;51.124;4.182;2023-05-07T14:44:12;2.33;;;2.10;;
41903;SDS011;27586;51.124;4.182;2023-05-07T14:46:37;2.45;;;2.20;;
41903;SDS011;27586;51.124;4.182;2023-05-07T14:49:03;2.83;;;2.30;;
41903;SDS011;27586;51.124;4.182;2023-05-07T14:51:29;2.40;;;2.20;;
41903;SDS011;27586;51.124;4.182;2023-05-07T14:53:55;3.58;;;2.60;;
41903;SDS011;27586;51.124;4.182;2023-05-07T14:56:21;2.30;;;2.10;;
41903;SDS011;27586;51.124;4.182;2023-05-07T14:58:47;3.17;;;2.20;;
41903;SDS011;27586;51.124;4.182;2023-05-07T15:01:14;2.45;;;2.15;;